createdAt,value
2023-02-27T00:01:44.933Z,0.45
2023-02-27T00:04:12.940Z,0.52
2023-02-27T00:06:39.349Z,0.33
2023-02-27T00:09:05.842Z,0.44
2023-02-27T00:11:32.326Z,0.49
2023-02-27T00:13:58.681Z,0.48
2023-02-27T00:16:25.192Z,0.36
2023-02-27T00:18:51.556Z,0.46
2023-02-27T00:21:18.272Z,0.38
2023-02-27T00:23:44.612Z,0.34
2023-02-27T00:26:11.027Z,0.41
2023-02-27T00:28:37.401Z,0.36
2023-02-27T00:31:04.732Z,0.35
2023-02-27T00:33:31.359Z,0.34
2023-02-27T00:35:59.684Z,0.45
2023-02-27T00:38:26.444Z,0.45
2023-02-27T00:40:52.877Z,0.30
2023-02-27T00:43:19.395Z,0.45
2023-02-27T00:45:45.891Z,0.23
2023-02-27T00:48:12.329Z,0.30
2023-02-27T00:50:38.727Z,0.32
2023-02-27T00:53:05.206Z,0.35
2023-02-27T00:55:32.004Z,0.42
2023-02-27T00:57:58.344Z,0.44
2023-02-27T01:00:24.887Z,0.42
2023-02-27T01:02:51.328Z,0.34
2023-02-27T01:05:18.571Z,0.15
2023-02-27T01:07:44.911Z,0.21
2023-02-27T01:10:12.419Z,0.26
2023-02-27T01:12:39.504Z,0.37
2023-02-27T01:15:07.479Z,0.38
2023-02-27T01:17:34.335Z,0.18
2023-02-27T01:20:00.811Z,0.21
2023-02-27T01:22:27.359Z,0.26
2023-02-27T01:24:53.798Z,0.21
2023-02-27T01:27:20.194Z,0.26
2023-02-27T01:29:46.676Z,0.19
2023-02-27T01:32:13.246Z,0.16
2023-02-27T01:34:39.693Z,0.16
2023-02-27T01:37:06.096Z,0.17
2023-02-27T01:39:33.054Z,0.28
2023-02-27T01:42:00.960Z,0.27
2023-02-27T01:44:29.915Z,0.29
2023-02-27T01:46:57.179Z,0.16
2023-02-27T01:49:34.717Z,0.25
2023-02-27T01:52:06.496Z,0.29
2023-02-27T01:54:36.828Z,0.20
2023-02-27T01:57:06.588Z,0.15
2023-02-27T01:59:39.411Z,0.20
2023-02-27T02:02:12.655Z,0.15
2023-02-27T02:04:40.464Z,0.09
2023-02-27T02:07:10.073Z,0.05
2023-02-27T02:09:43.537Z,-0.02
2023-02-27T02:12:13.840Z,-0.37
2023-02-27T02:14:40.251Z,-0.16
2023-02-27T02:17:40.164Z,0.01
2023-02-27T02:20:41.165Z,0.04
2023-02-27T02:23:32.080Z,0.01
2023-02-27T02:26:33.600Z,0.03
2023-02-27T02:29:12.284Z,-0.10
2023-02-27T02:32:08.393Z,-0.10
2023-02-27T02:35:05.452Z,-0.34
2023-02-27T02:37:50.648Z,-0.31
2023-02-27T02:40:24.335Z,-0.34
2023-02-27T02:42:58.914Z,-0.45
2023-02-27T02:45:56.564Z,-0.21
2023-02-27T02:48:34.702Z,-0.27
2023-02-27T02:51:18.566Z,-0.15
2023-02-27T02:54:03.750Z,-0.24
2023-02-27T02:56:39.624Z,-0.20
2023-02-27T02:59:30.865Z,-0.19
2023-02-27T03:02:02.521Z,0.01
2023-02-27T03:04:38.227Z,0.01
2023-02-27T03:07:14.953Z,-0.23
2023-02-27T03:09:46.200Z,-0.10
2023-02-27T03:12:16.494Z,-0.20
2023-02-27T03:14:51.706Z,-0.27
2023-02-27T03:17:26.181Z,-0.07
2023-02-27T03:20:01.972Z,-0.17
2023-02-27T03:22:34.315Z,-0.19
2023-02-27T03:25:03.109Z,-0.15
2023-02-27T03:27:37.956Z,-0.05
2023-02-27T03:30:10.534Z,-0.13
2023-02-27T03:32:45.892Z,0.04
2023-02-27T03:35:12.768Z,-0.26
2023-02-27T03:38:00.138Z,-0.12
2023-02-27T03:40:35.826Z,-0.10
2023-02-27T03:43:21.184Z,-0.03
2023-02-27T03:46:02.255Z,-0.39
2023-02-27T03:48:29.290Z,-0.50
2023-02-27T03:50:56.502Z,-0.58
2023-02-27T03:53:37.359Z,-0.32
2023-02-27T03:56:07.035Z,-0.22
2023-02-27T03:58:33.700Z,-0.23
2023-02-27T04:01:00.233Z,-0.25
2023-02-27T04:03:27.579Z,-0.41
2023-02-27T04:05:54.026Z,-0.42
2023-02-27T04:08:39.440Z,-0.42
2023-02-27T04:11:33.283Z,-0.48
2023-02-27T04:14:20.304Z,-0.63
2023-02-27T04:16:49.595Z,-0.71
2023-02-27T04:19:16.224Z,-0.41
2023-02-27T04:22:01.295Z,-0.59
2023-02-27T04:24:55.638Z,-0.64
2023-02-27T04:27:40.021Z,-0.65
2023-02-27T04:30:25.226Z,-0.72
2023-02-27T04:33:17.463Z,-0.64
2023-02-27T04:35:50.946Z,-0.56
2023-02-27T04:38:26.128Z,-0.72
2023-02-27T04:41:08.226Z,-0.71
2023-02-27T04:43:38.926Z,-0.76
2023-02-27T04:46:08.831Z,-0.70
2023-02-27T04:49:04.350Z,-0.80
2023-02-27T04:51:38.523Z,-0.79
2023-02-27T04:54:12.843Z,-0.76
2023-02-27T04:56:48.383Z,-0.86
2023-02-27T04:59:24.195Z,-0.85
2023-02-27T05:02:19.850Z,-0.88
2023-02-27T05:04:49.509Z,-0.86
2023-02-27T05:07:20.945Z,-0.82
2023-02-27T05:09:56.350Z,-0.85
2023-02-27T05:12:33.748Z,-0.91
2023-02-27T05:15:25.260Z,-0.93
2023-02-27T05:18:05.321Z,-0.88
2023-02-27T05:20:53.195Z,-0.94
2023-02-27T05:23:34.504Z,-0.85
2023-02-27T05:26:20.856Z,-0.60
2023-02-27T05:29:23.868Z,-0.65
2023-02-27T05:31:54.430Z,-0.82
2023-02-27T05:34:25.863Z,-0.69
2023-02-27T05:37:21.531Z,-0.80
2023-02-27T05:39:51.931Z,-0.81
2023-02-27T05:43:15.144Z,-0.85
2023-02-27T05:45:45.961Z,-0.94
2023-02-27T05:48:19.702Z,-0.85
2023-02-27T05:50:49.514Z,-0.92
2023-02-27T05:53:20.061Z,-0.73
2023-02-27T05:55:50.552Z,-0.63
2023-02-27T05:58:28.561Z,-0.57
2023-02-27T06:00:59.315Z,-0.60
2023-02-27T06:03:27.255Z,-0.87
2023-02-27T06:05:55.178Z,-0.89
2023-02-27T06:08:22.324Z,-1.02
2023-02-27T06:10:51.794Z,-1.03
2023-02-27T06:13:18.745Z,-0.73
2023-02-27T06:15:45.621Z,-0.87
2023-02-27T06:18:12.796Z,-0.76
2023-02-27T06:20:39.776Z,-0.73
2023-02-27T06:23:06.615Z,-0.61
2023-02-27T06:25:33.909Z,-0.66
2023-02-27T06:28:00.584Z,-0.43
2023-02-27T06:30:27.244Z,-0.46
2023-02-27T06:32:53.990Z,-0.49
2023-02-27T06:35:20.684Z,-0.39
2023-02-27T06:37:47.147Z,-0.37
2023-02-27T06:40:14.082Z,-0.41
2023-02-27T06:42:41.914Z,-0.21
2023-02-27T06:45:09.692Z,-0.26
2023-02-27T06:47:36.075Z,-0.28
2023-02-27T06:50:03.384Z,-0.17
2023-02-27T06:52:29.759Z,-0.21
2023-02-27T06:54:56.099Z,-0.15
2023-02-27T06:57:22.515Z,-0.07
2023-02-27T06:59:48.938Z,0.11
2023-02-27T07:02:16.970Z,0.15
2023-02-27T07:04:43.770Z,0.40
2023-02-27T07:07:33.328Z,0.38
2023-02-27T07:09:56.951Z,0.36
2023-02-27T07:12:23.314Z,0.52
2023-02-27T07:14:49.669Z,0.38
2023-02-27T07:17:16.084Z,0.36
2023-02-27T07:19:42.598Z,0.47
2023-02-27T07:22:11.953Z,0.44
2023-02-27T07:24:38.354Z,0.53
2023-02-27T07:27:04.758Z,0.61
2023-02-27T07:29:31.201Z,0.73
2023-02-27T07:31:57.667Z,0.68
2023-02-27T07:34:24.083Z,0.80
2023-02-27T07:36:50.484Z,0.80
2023-02-27T07:39:17.494Z,0.91
2023-02-27T07:41:43.879Z,0.92
2023-02-27T07:44:11.191Z,1.05
2023-02-27T07:46:37.719Z,1.03
2023-02-27T07:49:04.205Z,1.13
2023-02-27T07:51:30.668Z,1.19
2023-02-27T07:53:58.424Z,1.25
2023-02-27T07:56:25.995Z,1.34
2023-02-27T07:58:52.558Z,1.31
2023-02-27T08:01:18.976Z,1.40
2023-02-27T08:03:45.387Z,1.51
2023-02-27T08:06:11.749Z,1.57
2023-02-27T08:08:38.279Z,1.57
2023-02-27T08:11:05.195Z,1.60
2023-02-27T08:13:58.913Z,1.56
2023-02-27T08:16:18.348Z,1.64
2023-02-27T08:18:44.734Z,1.46
2023-02-27T08:21:11.144Z,1.52
2023-02-27T08:23:37.533Z,1.53
2023-02-27T08:26:04.079Z,1.45
2023-02-27T08:28:30.450Z,1.54
2023-02-27T08:30:56.852Z,1.69
2023-02-27T08:33:24.464Z,1.86
2023-02-27T08:35:50.953Z,2.13
2023-02-27T08:38:17.331Z,2.26
2023-02-27T08:40:43.738Z,1.97
2023-02-27T08:43:10.084Z,1.92
2023-02-27T08:45:36.563Z,1.89
2023-02-27T08:48:03.251Z,2.08
2023-02-27T08:50:29.699Z,2.19
2023-02-27T08:52:56.115Z,2.32
2023-02-27T08:55:22.606Z,2.30
2023-02-27T08:57:48.982Z,2.00
2023-02-27T09:00:16.363Z,2.12
2023-02-27T09:02:42.817Z,2.17
2023-02-27T09:05:09.572Z,2.16
2023-02-27T09:07:36.160Z,2.34
2023-02-27T09:10:02.641Z,2.37
2023-02-27T09:12:28.993Z,2.27
2023-02-27T09:14:55.407Z,2.59
2023-02-27T09:17:21.807Z,2.76
2023-02-27T09:19:48.229Z,2.70
2023-02-27T09:22:14.579Z,2.52
2023-02-27T09:24:40.976Z,2.52
2023-02-27T09:27:07.696Z,2.74
2023-02-27T09:29:34.327Z,2.93
2023-02-27T09:32:00.990Z,3.03
2023-02-27T09:34:27.475Z,2.56
2023-02-27T09:36:53.932Z,2.59
2023-02-27T09:39:21.414Z,2.55
2023-02-27T09:42:05.337Z,2.80
2023-02-27T09:44:47.135Z,2.84
2023-02-27T09:47:35.380Z,2.90
2023-02-27T09:50:06.335Z,2.76
2023-02-27T09:52:36.365Z,2.59
2023-02-27T09:55:05.675Z,2.83
2023-02-27T09:57:48.444Z,2.73
2023-02-27T10:00:30.423Z,2.79
2023-02-27T10:02:59.830Z,2.71
2023-02-27T10:05:33.649Z,2.68
2023-02-27T10:08:16.925Z,2.84
2023-02-27T10:11:07.339Z,2.71
2023-02-27T10:13:47.672Z,2.89
2023-02-27T10:16:19.255Z,2.88
2023-02-27T10:19:06.393Z,2.71
2023-02-27T10:21:46.769Z,2.71
2023-02-27T10:24:23.789Z,3.06
2023-02-27T10:26:55.072Z,3.02
2023-02-27T10:29:32.549Z,3.25
2023-02-27T10:32:06.983Z,3.29
2023-02-27T10:34:34.856Z,3.28
2023-02-27T10:37:03.913Z,3.26
2023-02-27T10:39:42.641Z,3.05
2023-02-27T10:42:12.302Z,3.16
2023-02-27T10:44:38.689Z,3.10
2023-02-27T10:47:05.198Z,3.38
2023-02-27T10:49:33.628Z,3.32
2023-02-27T10:52:18.986Z,3.50
2023-02-27T10:54:47.446Z,3.34
2023-02-27T10:57:33.055Z,3.47
2023-02-27T11:00:06.084Z,3.50
2023-02-27T11:02:39.037Z,3.77
2023-02-27T11:05:17.792Z,3.73
2023-02-27T11:07:44.432Z,3.68
2023-02-27T11:10:11.718Z,3.78
2023-02-27T11:12:39.574Z,3.81
2023-02-27T11:15:14.956Z,3.56
2023-02-27T11:17:43.584Z,3.65
2023-02-27T11:20:40.632Z,3.53
2023-02-27T11:23:15.208Z,3.49
2023-02-27T11:25:42.107Z,3.51
2023-02-27T11:28:29.722Z,3.61
2023-02-27T11:30:59.999Z,3.65
2023-02-27T11:33:27.735Z,3.48
2023-02-27T11:35:57.388Z,3.69
2023-02-27T11:38:28.800Z,3.78
2023-02-27T11:40:58.571Z,3.62
2023-02-27T11:43:39.984Z,3.82
2023-02-27T11:46:37.460Z,3.98
2023-02-27T11:49:13.767Z,3.66
2023-02-27T11:51:56.158Z,4.22
2023-02-27T11:54:49.223Z,4.12
2023-02-27T11:57:29.989Z,3.99
2023-02-27T12:00:06.424Z,3.90
2023-02-27T12:03:16.278Z,4.18
2023-02-27T12:05:56.281Z,4.20
2023-02-27T12:08:48.832Z,4.24
2023-02-27T12:11:29.762Z,4.31
2023-02-27T12:14:04.095Z,4.42
2023-02-27T12:16:39.576Z,4.46
2023-02-27T12:19:22.357Z,4.39
2023-02-27T12:22:02.039Z,4.13
2023-02-27T12:24:30.685Z,3.92
2023-02-27T12:27:18.684Z,4.07
2023-02-27T12:29:59.479Z,3.94
2023-02-27T12:32:43.539Z,3.84
2023-02-27T12:35:19.879Z,4.32
2023-02-27T12:37:46.551Z,4.31
2023-02-27T12:40:17.496Z,4.17
2023-02-27T12:42:55.956Z,4.18
2023-02-27T12:45:43.190Z,4.34
2023-02-27T12:48:12.847Z,4.55
2023-02-27T12:51:07.028Z,4.82
2023-02-27T12:53:54.509Z,4.63
2023-02-27T12:56:25.313Z,4.57
2023-02-27T12:59:16.664Z,4.75
2023-02-27T13:02:25.439Z,4.77
2023-02-27T13:05:07.355Z,4.87
2023-02-27T13:07:43.417Z,4.95
2023-02-27T13:10:23.391Z,4.80
2023-02-27T13:13:02.828Z,4.61
2023-02-27T13:15:41.571Z,4.43
2023-02-27T13:18:27.779Z,4.75
2023-02-27T13:20:59.871Z,5.18
2023-02-27T13:23:47.761Z,4.52
2023-02-27T13:26:28.788Z,4.62
2023-02-27T13:28:56.075Z,4.68
2023-02-27T13:31:36.078Z,4.70
2023-02-27T13:34:17.187Z,5.09
2023-02-27T13:36:51.837Z,5.29
2023-02-27T13:39:40.387Z,5.08
2023-02-27T13:42:30.582Z,5.14
2023-02-27T13:44:59.471Z,5.51
2023-02-27T13:47:28.805Z,5.34
2023-02-27T13:50:06.050Z,5.35
2023-02-27T13:52:35.131Z,5.02
2023-02-27T13:55:11.834Z,5.19
2023-02-27T13:57:39.145Z,5.18
2023-02-27T14:00:23.077Z,5.17
2023-02-27T14:03:06.184Z,5.37
2023-02-27T14:05:42.923Z,5.48
2023-02-27T14:08:14.077Z,5.83
2023-02-27T14:10:50.738Z,5.83
2023-02-27T14:13:45.188Z,5.45
2023-02-27T14:16:37.614Z,5.58
2023-02-27T14:19:16.238Z,5.72
2023-02-27T14:22:01.332Z,5.88
2023-02-27T14:24:47.014Z,5.85
2023-02-27T14:27:25.496Z,5.41
2023-02-27T14:29:56.037Z,5.48
2023-02-27T14:32:25.942Z,5.13
2023-02-27T14:34:54.269Z,5.39
2023-02-27T14:37:23.571Z,5.61
2023-02-27T14:39:52.012Z,5.47
2023-02-27T14:42:46.364Z,5.31
2023-02-27T14:45:21.025Z,5.79
2023-02-27T14:47:48.600Z,5.88
2023-02-27T14:50:34.153Z,6.12
2023-02-27T14:53:01.694Z,6.06
2023-02-27T14:55:31.449Z,6.07
2023-02-27T14:58:08.382Z,5.96
2023-02-27T15:00:40.860Z,5.76
2023-02-27T15:03:11.079Z,5.61
2023-02-27T15:05:38.398Z,5.51
2023-02-27T15:08:04.974Z,5.42
2023-02-27T15:10:31.444Z,5.45
2023-02-27T15:13:02.007Z,5.63
2023-02-27T15:15:28.614Z,5.90
2023-02-27T15:17:55.809Z,5.87
2023-02-27T15:20:31.320Z,5.86
2023-02-27T15:22:59.660Z,5.80
2023-02-27T15:25:34.380Z,5.62
2023-02-27T15:28:07.253Z,5.57
2023-02-27T15:30:33.936Z,5.46
2023-02-27T15:33:02.692Z,5.39
2023-02-27T15:35:35.958Z,5.28
2023-02-27T15:38:02.760Z,5.22
2023-02-27T15:40:31.863Z,5.19
2023-02-27T15:43:00.363Z,5.11
2023-02-27T15:45:33.225Z,5.05
2023-02-27T15:48:00.124Z,5.01
2023-02-27T15:50:32.057Z,4.95
2023-02-27T15:53:07.639Z,4.98
2023-02-27T15:55:37.457Z,4.85
2023-02-27T15:58:17.051Z,4.85
2023-02-27T16:00:43.972Z,4.89
2023-02-27T16:03:17.509Z,4.88
2023-02-27T16:05:43.958Z,4.79
2023-02-27T16:08:18.228Z,4.81
2023-02-27T16:10:46.638Z,4.68
2023-02-27T16:13:31.823Z,4.72
2023-02-27T16:16:04.227Z,4.65
2023-02-27T16:18:54.861Z,4.60
2023-02-27T16:21:26.947Z,4.70
2023-02-27T16:23:54.659Z,4.69
2023-02-27T16:26:29.112Z,4.59
2023-02-27T16:29:16.831Z,4.54
2023-02-27T16:31:49.295Z,4.61
2023-02-27T16:34:20.590Z,4.59
2023-02-27T16:37:02.246Z,4.61
2023-02-27T16:39:28.779Z,4.55
2023-02-27T16:41:57.201Z,4.44
2023-02-27T16:44:24.386Z,4.38
2023-02-27T16:46:56.042Z,4.47
2023-02-27T16:49:25.982Z,4.44
2023-02-27T16:51:52.663Z,4.52
2023-02-27T16:54:19.510Z,4.50
2023-02-27T16:56:47.328Z,4.34
2023-02-27T16:59:28.496Z,4.05
2023-02-27T17:01:58.625Z,4.05
2023-02-27T17:04:26.545Z,4.01
2023-02-27T17:06:54.754Z,4.00
2023-02-27T17:09:21.815Z,4.27
2023-02-27T17:11:49.077Z,4.14
2023-02-27T17:14:16.099Z,4.06
2023-02-27T17:16:42.621Z,4.08
2023-02-27T17:19:09.043Z,3.99
2023-02-27T17:21:35.718Z,4.00
2023-02-27T17:24:02.606Z,3.93
2023-02-27T17:26:29.414Z,4.02
2023-02-27T17:28:56.369Z,4.10
2023-02-27T17:31:24.019Z,3.98
2023-02-27T17:33:51.174Z,3.93
2023-02-27T17:36:18.155Z,3.89
2023-02-27T17:38:44.950Z,3.86
2023-02-27T17:41:13.096Z,3.80
2023-02-27T17:43:41.548Z,3.80
2023-02-27T17:46:09.277Z,3.77
2023-02-27T17:48:37.606Z,3.80
2023-02-27T17:51:10.290Z,3.72
2023-02-27T17:53:37.263Z,3.72
2023-02-27T17:56:04.673Z,3.86
2023-02-27T17:58:31.749Z,3.78
2023-02-27T18:01:16.970Z,3.80
2023-02-27T18:03:45.974Z,3.69
2023-02-27T18:06:13.154Z,3.62
2023-02-27T18:08:39.545Z,3.58
2023-02-27T18:11:11.249Z,3.58
2023-02-27T18:13:40.120Z,3.56
2023-02-27T18:16:07.097Z,3.51
2023-02-27T18:18:38.454Z,3.49
2023-02-27T18:21:08.027Z,3.43
2023-02-27T18:23:36.284Z,3.49
2023-02-27T18:26:03.142Z,3.52
2023-02-27T18:28:29.714Z,3.39
2023-02-27T18:30:56.645Z,3.40
2023-02-27T18:33:23.732Z,3.53
2023-02-27T18:35:51.019Z,3.48
2023-02-27T18:38:17.884Z,3.42
2023-02-27T18:40:44.424Z,3.50
2023-02-27T18:43:11.713Z,3.32
2023-02-27T18:45:38.528Z,3.00
2023-02-27T18:48:05.352Z,3.07
2023-02-27T18:50:31.837Z,3.04
2023-02-27T18:53:00.201Z,2.95
2023-02-27T18:55:26.869Z,2.82
2023-02-27T18:57:53.419Z,3.12
2023-02-27T19:00:21.598Z,3.06
2023-02-27T19:02:48.144Z,2.96
2023-02-27T19:05:14.743Z,2.98
2023-02-27T19:07:42.307Z,2.93
2023-02-27T19:10:09.730Z,2.91
2023-02-27T19:12:36.264Z,2.67
2023-02-27T19:15:02.807Z,2.68
2023-02-27T19:17:29.310Z,2.45
2023-02-27T19:19:59.574Z,2.33
2023-02-27T19:22:30.326Z,2.28
2023-02-27T19:24:57.667Z,1.97
2023-02-27T19:27:24.710Z,2.12
2023-02-27T19:29:51.709Z,1.95
2023-02-27T19:32:18.331Z,1.52
2023-02-27T19:34:44.794Z,1.48
2023-02-27T19:37:11.349Z,1.41
2023-02-27T19:39:37.913Z,1.47
2023-02-27T19:42:04.375Z,1.53
2023-02-27T19:44:30.711Z,1.65
2023-02-27T19:46:57.169Z,1.51
2023-02-27T19:49:23.538Z,1.51
2023-02-27T19:51:50.000Z,1.52
2023-02-27T19:54:16.613Z,1.55
2023-02-27T19:56:43.429Z,1.52
2023-02-27T19:59:11.905Z,2.06
2023-02-27T20:01:42.966Z,1.47
2023-02-27T20:04:11.034Z,1.26
2023-02-27T20:06:42.077Z,1.51
2023-02-27T20:09:13.103Z,1.28
2023-02-27T20:11:40.290Z,1.20
2023-02-27T20:14:07.377Z,1.22
2023-02-27T20:16:36.146Z,1.18
2023-02-27T20:19:06.994Z,0.67
2023-02-27T20:21:34.181Z,0.72
2023-02-27T20:24:01.371Z,0.88
2023-02-27T20:26:34.438Z,0.99
2023-02-27T20:29:05.033Z,1.09
2023-02-27T20:31:33.799Z,1.04
2023-02-27T20:34:01.161Z,1.14
2023-02-27T20:36:28.101Z,1.01
2023-02-27T20:38:54.576Z,0.89
2023-02-27T20:41:22.526Z,0.96
2023-02-27T20:43:49.463Z,0.99
2023-02-27T20:46:21.701Z,1.26
2023-02-27T20:48:48.430Z,1.35
2023-02-27T20:51:20.381Z,1.42
2023-02-27T20:53:49.959Z,1.44
2023-02-27T20:56:20.599Z,1.64
2023-02-27T20:58:47.206Z,1.66
2023-02-27T21:01:15.256Z,1.47
2023-02-27T21:03:43.388Z,1.45
2023-02-27T21:06:11.996Z,1.56
2023-02-27T21:08:40.920Z,1.65
2023-02-27T21:11:11.753Z,1.70
2023-02-27T21:13:38.363Z,1.93
2023-02-27T21:16:07.345Z,1.61
2023-02-27T21:18:34.104Z,1.61
2023-02-27T21:21:23.489Z,1.63
2023-02-27T21:23:50.815Z,1.46
2023-02-27T21:26:20.798Z,1.46
2023-02-27T21:28:56.323Z,1.65
2023-02-27T21:31:25.638Z,1.63
2023-02-27T21:33:54.328Z,1.52
2023-02-27T21:36:25.799Z,1.42
2023-02-27T21:38:59.058Z,1.29
2023-02-27T21:41:25.947Z,1.60
2023-02-27T21:43:52.457Z,1.57
2023-02-27T21:46:20.670Z,1.42
2023-02-27T21:48:47.104Z,1.33
2023-02-27T21:51:13.538Z,1.27
2023-02-27T21:53:39.934Z,0.69
2023-02-27T21:56:09.131Z,0.63
2023-02-27T21:58:36.196Z,0.62
2023-02-27T22:01:03.236Z,0.27
2023-02-27T22:03:34.231Z,0.35
2023-02-27T22:06:02.041Z,0.23
2023-02-27T22:08:28.745Z,0.27
2023-02-27T22:10:57.173Z,0.19
2023-02-27T22:13:23.900Z,0.04
2023-02-27T22:15:50.867Z,-0.22
2023-02-27T22:18:17.363Z,-0.30
2023-02-27T22:20:43.858Z,-0.35
2023-02-27T22:23:10.374Z,-0.37
2023-02-27T22:25:37.092Z,-0.38
2023-02-27T22:28:04.151Z,-0.47
2023-02-27T22:30:30.780Z,-0.34
2023-02-27T22:32:57.274Z,-0.15
2023-02-27T22:35:24.004Z,0.13
2023-02-27T22:37:50.640Z,0.28
2023-02-27T22:40:17.894Z,0.50
2023-02-27T22:42:44.952Z,0.24
2023-02-27T22:45:11.660Z,0.32
2023-02-27T22:47:38.102Z,0.16
2023-02-27T22:50:04.815Z,-0.01
2023-02-27T22:52:31.214Z,0.01
2023-02-27T22:54:57.624Z,0.10
2023-02-27T22:57:23.971Z,-0.06
2023-02-27T22:59:50.333Z,-0.13
2023-02-27T23:02:17.287Z,-0.19
2023-02-27T23:04:43.790Z,-0.11
2023-02-27T23:07:10.213Z,-0.14
2023-02-27T23:09:36.594Z,-0.14
2023-02-27T23:12:04.297Z,-0.12
2023-02-27T23:14:30.719Z,0.04
2023-02-27T23:16:57.188Z,-0.09
2023-02-27T23:19:23.548Z,-0.17
2023-02-27T23:21:50.081Z,-0.07
2023-02-27T23:24:18.254Z,-0.10
2023-02-27T23:26:47.987Z,0.05
2023-02-27T23:29:14.876Z,-0.05
2023-02-27T23:31:42.355Z,0.04
2023-02-27T23:34:09.590Z,0.01
2023-02-27T23:36:37.158Z,-0.11
2023-02-27T23:39:04.923Z,-0.05
2023-02-27T23:41:32.155Z,-0.05
2023-02-27T23:43:58.665Z,0.03
2023-02-27T23:46:30.565Z,-0.02
2023-02-27T23:49:01.277Z,0.13
2023-02-27T23:51:30.584Z,-0.07
2023-02-27T23:53:57.650Z,-0.21
2023-02-27T23:56:27.628Z,-0.07
2023-02-27T23:58:56.818Z,0.08
